Time;durP1;ratioP1;P1;durP2;ratioP2;P2;SDS_P1;SDS_P2;PMS_P1;PMS_P2;Temp;Humidity;BMP_temperature;BMP_pressure;BME280_temperature;BME280_humidity;BME280_pressure;Samples;Min_cycle;Max_cycle;Signal;HPM_P1;HPM_P2
2022/11/12 00:02:13;;;;;;;25.67;12.60;;;;;;;;;;5045613;28;20255;-79
2022/11/12 00:04:39;;;;;;;23.35;12.10;;;;;;;;;;5032132;28;20389;-79
2022/11/12 00:07:04;;;;;;;24.52;11.98;;;;;;;;;;5014710;28;20025;-79
2022/11/12 00:09:29;;;;;;;24.95;11.65;;;;;;;;;;5031972;28;20104;-78
2022/11/12 00:11:54;;;;;;;25.35;11.90;;;;;;;;;;5031685;28;20103;-78
2022/11/12 00:14:20;;;;;;;25.40;12.45;;;;;;;;;;5013873;28;20033;-77
2022/11/12 00:16:45;;;;;;;26.52;12.55;;;;;;;;;;5035089;28;20519;-78
2022/11/12 00:19:10;;;;;;;27.38;12.40;;;;;;;;;;5051768;28;20029;-79
2022/11/12 00:21:35;;;;;;;25.27;12.10;;;;;;;;;;5050816;28;20500;-78
2022/11/12 00:24:01;;;;;;;21.05;11.90;;;;;;;;;;5051217;28;20124;-78
2022/11/12 00:26:26;;;;;;;24.25;12.75;;;;;;;;;;5051917;28;20036;-78
2022/11/12 00:28:51;;;;;;;21.88;11.93;;;;;;;;;;5052011;28;20492;-78
2022/11/12 00:31:17;;;;;;;24.23;12.63;;;;;;;;;;5048715;28;20029;-78
2022/11/12 00:33:42;;;;;;;24.38;11.80;;;;;;;;;;5032443;28;20032;-78
2022/11/12 00:36:09;;;;;;;28.38;12.43;;;;;;;;;;5047519;28;20033;-77
2022/11/12 00:38:34;;;;;;;28.20;12.82;;;;;;;;;;5051539;28;20049;-79
2022/11/12 00:40:59;;;;;;;24.83;12.07;;;;;;;;;;5050923;28;20024;-79
2022/11/12 00:43:25;;;;;;;26.83;12.95;;;;;;;;;;5052357;28;20035;-77
2022/11/12 00:45:50;;;;;;;25.38;12.13;;;;;;;;;;5051897;28;20088;-79
2022/11/12 00:48:15;;;;;;;27.42;12.32;;;;;;;;;;5037350;28;20084;-80
2022/11/12 00:50:41;;;;;;;23.35;12.38;;;;;;;;;;5031741;28;20119;-77
2022/11/12 00:53:06;;;;;;;23.17;12.00;;;;;;;;;;5032160;28;20037;-78
2022/11/12 00:55:31;;;;;;;27.20;12.07;;;;;;;;;;5031733;28;20017;-79
2022/11/12 00:57:58;;;;;;;24.80;11.77;;;;;;;;;;5014270;28;20028;-79
2022/11/12 01:00:24;;;;;;;22.73;11.50;;;;;;;;;;5031937;28;20760;-78
2022/11/12 01:02:49;;;;;;;22.90;12.10;;;;;;;;;;5050033;28;20057;-78
2022/11/12 01:05:15;;;;;;;19.30;10.63;;;;;;;;;;5051260;28;20033;-79
2022/11/12 01:07:40;;;;;;;24.55;10.85;;;;;;;;;;5051081;28;20025;-78
2022/11/12 01:10:07;;;;;;;23.45;11.27;;;;;;;;;;5051828;28;20495;-78
2022/11/12 01:12:32;;;;;;;22.10;10.98;;;;;;;;;;5051434;28;20055;-79
2022/11/12 01:14:57;;;;;;;22.40;11.10;;;;;;;;;;5051083;28;20501;-77
2022/11/12 01:17:23;;;;;;;21.20;10.82;;;;;;;;;;5050111;28;20021;-78
2022/11/12 01:19:49;;;;;;;22.52;10.20;;;;;;;;;;5050992;28;20330;-78
2022/11/12 01:22:14;;;;;;;23.27;10.73;;;;;;;;;;5032686;28;20040;-78
2022/11/12 01:24:39;;;;;;;21.48;10.23;;;;;;;;;;5031778;28;20021;-78
2022/11/12 01:27:05;;;;;;;22.30;10.65;;;;;;;;;;5013759;28;20121;-79
2022/11/12 01:29:30;;;;;;;19.23;9.98;;;;;;;;;;5029723;28;20026;-77
2022/11/12 01:31:55;;;;;;;20.45;10.38;;;;;;;;;;5030823;28;20136;-77
2022/11/12 01:34:21;;;;;;;18.65;9.68;;;;;;;;;;5013499;28;20104;-78
2022/11/12 01:36:46;;;;;;;19.63;10.25;;;;;;;;;;5051293;28;20048;-78
2022/11/12 01:39:11;;;;;;;19.30;9.70;;;;;;;;;;5054721;28;20041;-78
2022/11/12 01:41:38;;;;;;;19.83;9.73;;;;;;;;;;5037846;28;20029;-79
2022/11/12 01:44:13;;;;;;;17.95;9.02;;;;;;;;;;5055662;28;20032;-79
2022/11/12 01:47:17;;;;;;;17.55;9.40;;;;;;;;;;5056156;28;20428;-80
2022/11/12 01:49:52;;;;;;;19.23;9.80;;;;;;;;;;5053420;28;20051;-79
2022/11/12 01:52:43;;;;;;;18.08;9.48;;;;;;;;;;5035875;28;20266;-79
2022/11/12 01:55:12;;;;;;;21.15;8.95;;;;;;;;;;5036133;28;20029;-78
2022/11/12 01:57:44;;;;;;;16.45;9.20;;;;;;;;;;5035738;28;20032;-78
2022/11/12 02:00:11;;;;;;;17.88;9.20;;;;;;;;;;5035411;28;20344;-79
2022/11/12 02:02:38;;;;;;;19.23;9.30;;;;;;;;;;5034934;28;20041;-78
2022/11/12 02:05:06;;;;;;;16.65;8.50;;;;;;;;;;5041619;28;20739;-79
2022/11/12 02:07:33;;;;;;;17.98;9.43;;;;;;;;;;5054916;28;20025;-79
2022/11/12 02:10:00;;;;;;;17.00;9.15;;;;;;;;;;5054216;28;20061;-77
2022/11/12 02:15:10;;;;;;;17.55;9.07;;;;;;;;;;5054913;28;20447;-79
2022/11/12 02:17:35;;;;;;;18.10;8.85;;;;;;;;;;5053029;28;20124;-77
2022/11/12 02:20:00;;;;;;;16.65;8.50;;;;;;;;;;5044051;28;20037;-78
2022/11/12 02:22:26;;;;;;;19.13;9.27;;;;;;;;;;5033693;28;20037;-79
2022/11/12 02:24:51;;;;;;;15.05;8.07;;;;;;;;;;5034635;28;20029;-78
2022/11/12 02:27:17;;;;;;;16.23;8.57;;;;;;;;;;5034190;28;20057;-79
2022/11/12 02:29:45;;;;;;;17.25;8.80;;;;;;;;;;5034924;28;20044;-78
2022/11/12 02:32:12;;;;;;;16.10;9.30;;;;;;;;;;5032756;28;20129;-79
2022/11/12 02:34:38;;;;;;;20.55;9.73;;;;;;;;;;5039447;28;20021;-77
2022/11/12 02:37:04;;;;;;;20.02;9.10;;;;;;;;;;5054500;28;20029;-78
2022/11/12 02:39:29;;;;;;;16.92;8.60;;;;;;;;;;5054515;28;20528;-78
2022/11/12 02:41:54;;;;;;;17.60;9.05;;;;;;;;;;5054341;28;20118;-77
2022/11/12 02:44:19;;;;;;;17.30;8.73;;;;;;;;;;5052966;28;20470;-78
2022/11/12 02:46:45;;;;;;;15.15;8.70;;;;;;;;;;5053081;28;20024;-79
2022/11/12 02:49:10;;;;;;;21.02;8.65;;;;;;;;;;5054060;28;20027;-78
2022/11/12 02:51:35;;;;;;;20.25;8.52;;;;;;;;;;5054336;28;20091;-78
2022/11/12 02:54:00;;;;;;;18.13;9.35;;;;;;;;;;5051713;28;20119;-78
2022/11/12 02:56:26;;;;;;;20.38;8.98;;;;;;;;;;5053769;28;20737;-77
2022/11/12 02:58:51;;;;;;;15.23;8.65;;;;;;;;;;5053277;28;20029;-79
2022/11/12 03:01:16;;;;;;;16.58;8.65;;;;;;;;;;5053864;28;20779;-80
2022/11/12 03:03:41;;;;;;;17.40;8.45;;;;;;;;;;5053764;28;20017;-79
2022/11/12 03:06:07;;;;;;;14.52;8.13;;;;;;;;;;5052298;28;20028;-78
2022/11/12 03:08:32;;;;;;;15.23;7.97;;;;;;;;;;5053741;28;20530;-78
2022/11/12 03:10:57;;;;;;;21.65;8.55;;;;;;;;;;5053365;28;20052;-79
2022/11/12 03:13:25;;;;;;;14.57;8.88;;;;;;;;;;5053780;28;20033;-78
2022/11/12 03:15:58;;;;;;;13.77;8.20;;;;;;;;;;5054304;28;20055;-78
2022/11/12 03:18:23;;;;;;;19.00;8.40;;;;;;;;;;5054051;28;20314;-80
2022/11/12 03:20:50;;;;;;;16.10;7.85;;;;;;;;;;5034509;28;20044;-79
2022/11/12 03:23:16;;;;;;;16.13;8.68;;;;;;;;;;5033717;28;20025;-79
2022/11/12 03:25:41;;;;;;;14.88;7.95;;;;;;;;;;5033376;28;20363;-76
2022/11/12 03:28:09;;;;;;;15.63;8.30;;;;;;;;;;5033047;28;20017;-79
2022/11/12 03:30:37;;;;;;;13.27;7.65;;;;;;;;;;5033144;28;20565;-78
2022/11/12 03:33:03;;;;;;;14.27;8.30;;;;;;;;;;5032673;28;20526;-77
2022/11/12 03:35:29;;;;;;;15.48;7.75;;;;;;;;;;5032836;28;20021;-78
2022/11/12 03:37:55;;;;;;;15.77;7.88;;;;;;;;;;5014882;28;20030;-79
2022/11/12 03:40:20;;;;;;;15.57;8.05;;;;;;;;;;5032690;28;20380;-78
2022/11/12 03:42:47;;;;;;;15.77;8.13;;;;;;;;;;5033190;28;20116;-79
2022/11/12 03:45:17;;;;;;;14.00;7.75;;;;;;;;;;5032978;28;20406;-79
2022/11/12 03:47:43;;;;;;;16.08;8.30;;;;;;;;;;5030489;28;20025;-78
2022/11/12 03:50:10;;;;;;;14.40;8.13;;;;;;;;;;5031547;28;20728;-79
2022/11/12 03:52:35;;;;;;;14.32;7.95;;;;;;;;;;5052682;28;20029;-79
2022/11/12 03:55:00;;;;;;;14.52;8.25;;;;;;;;;;5051469;28;20031;-79
2022/11/12 03:57:26;;;;;;;13.93;8.13;;;;;;;;;;5052231;28;20021;-79
2022/11/12 03:59:51;;;;;;;16.55;8.50;;;;;;;;;;5052986;28;20033;-78
2022/11/12 04:02:16;;;;;;;15.88;8.15;;;;;;;;;;5053490;28;20036;-78
2022/11/12 04:10:09;;;;;;;15.18;8.18;;;;;;;;;;5034885;28;20075;-78
2022/11/12 04:15:18;;;;;;;16.95;7.95;;;;;;;;;;5032331;28;20075;-78
2022/11/12 04:23:45;;;;;;;13.23;7.78;;;;;;;;;;4968720;28;20559;-78
2022/11/12 04:26:22;;;;;;;16.48;8.00;;;;;;;;;;5017902;28;20049;-80
2022/11/12 04:31:30;;;;;;;18.92;8.38;;;;;;;;;;5032535;28;20078;-77
2022/11/12 04:34:27;;;;;;;14.88;8.07;;;;;;;;;;5014833;28;20131;-77
2022/11/12 04:36:41;;;;;;;15.68;7.88;;;;;;;;;;5031969;28;20033;-78
2022/11/12 04:39:06;;;;;;;16.08;8.65;;;;;;;;;;5032548;28;20048;-79
2022/11/12 04:46:59;;;;;;;13.75;7.60;;;;;;;;;;5032150;28;20573;-80
2022/11/12 04:49:25;;;;;;;13.45;7.13;;;;;;;;;;5032578;28;20133;-78
2022/11/12 04:52:05;;;;;;;17.40;7.82;;;;;;;;;;5032329;28;20406;-78
2022/11/12 04:54:32;;;;;;;14.85;7.60;;;;;;;;;;5033784;28;20400;-80
2022/11/12 04:56:57;;;;;;;15.25;7.90;;;;;;;;;;5032054;28;20602;-78
2022/11/12 04:59:23;;;;;;;13.70;7.20;;;;;;;;;;5031423;28;20030;-79
2022/11/12 05:01:48;;;;;;;14.40;7.57;;;;;;;;;;5033126;28;20088;-79
2022/11/12 05:04:13;;;;;;;14.93;7.22;;;;;;;;;;5032481;28;20482;-77
2022/11/12 05:06:50;;;;;;;14.18;7.50;;;;;;;;;;5031596;28;20554;-79
2022/11/12 05:09:17;;;;;;;13.60;7.60;;;;;;;;;;5037823;28;20036;-77
2022/11/12 05:11:43;;;;;;;15.23;7.93;;;;;;;;;;5056435;28;20106;-79
2022/11/12 05:14:08;;;;;;;16.08;7.95;;;;;;;;;;5056895;28;20029;-79
2022/11/12 05:16:33;;;;;;;13.40;7.18;;;;;;;;;;5056732;28;20041;-78
2022/11/12 05:18:58;;;;;;;14.07;7.57;;;;;;;;;;5057028;28;20036;-79
2022/11/12 05:24:08;;;;;;;15.23;7.90;;;;;;;;;;5048825;28;20099;-77
2022/11/12 05:26:33;;;;;;;17.13;7.38;;;;;;;;;;5017118;28;20030;-78
2022/11/12 05:28:58;;;;;;;16.20;7.78;;;;;;;;;;5035197;28;20028;-78
2022/11/12 05:31:23;;;;;;;14.27;8.02;;;;;;;;;;5036366;28;20029;-78
2022/11/12 05:33:51;;;;;;;16.73;8.43;;;;;;;;;;5038863;28;20033;-79
2022/11/12 05:36:16;;;;;;;17.70;8.63;;;;;;;;;;5038961;28;20037;-78
2022/11/12 05:38:41;;;;;;;18.95;9.45;;;;;;;;;;5043610;28;20398;-79
2022/11/12 05:41:07;;;;;;;19.60;9.60;;;;;;;;;;5038811;28;20025;-78
2022/11/12 05:43:32;;;;;;;21.15;9.45;;;;;;;;;;5021586;28;20029;-79
2022/11/12 05:45:57;;;;;;;17.42;8.82;;;;;;;;;;5021725;28;20385;-77
2022/11/12 05:48:22;;;;;;;18.73;9.05;;;;;;;;;;5039341;28;20021;-78
2022/11/12 05:50:51;;;;;;;18.00;9.30;;;;;;;;;;5038943;28;20052;-80
2022/11/12 05:53:17;;;;;;;19.33;9.70;;;;;;;;;;5038916;28;20021;-79
2022/11/12 05:55:42;;;;;;;20.55;8.82;;;;;;;;;;5057688;28;20082;-79
2022/11/12 05:58:08;;;;;;;21.20;9.10;;;;;;;;;;5058667;28;20074;-78
2022/11/12 06:00:39;;;;;;;20.17;9.05;;;;;;;;;;5057608;28;20036;-79
2022/11/12 06:03:05;;;;;;;20.45;8.55;;;;;;;;;;5058398;28;20076;-78
2022/11/12 06:05:31;;;;;;;19.25;9.07;;;;;;;;;;5058063;28;20036;-78
2022/11/12 06:07:56;;;;;;;22.70;9.45;;;;;;;;;;5057772;28;20032;-79
2022/11/12 06:10:22;;;;;;;17.58;9.00;;;;;;;;;;5039173;28;20026;-79
2022/11/12 06:12:47;;;;;;;20.45;8.57;;;;;;;;;;5037851;28;20556;-79
2022/11/12 06:15:12;;;;;;;17.35;8.45;;;;;;;;;;5020155;28;20025;-78
2022/11/12 06:17:38;;;;;;;18.35;9.02;;;;;;;;;;5019632;28;20025;-79
2022/11/12 06:20:03;;;;;;;19.63;9.40;;;;;;;;;;5042303;28;20024;-79
2022/11/12 06:22:28;;;;;;;20.30;9.55;;;;;;;;;;5056809;28;20074;-78
2022/11/12 06:24:54;;;;;;;17.77;9.23;;;;;;;;;;5058252;28;20452;-79
2022/11/12 06:27:19;;;;;;;17.52;9.43;;;;;;;;;;5057789;28;20021;-79
2022/11/12 06:29:44;;;;;;;16.67;8.38;;;;;;;;;;5058578;28;20108;-80
2022/11/12 06:32:10;;;;;;;16.80;8.60;;;;;;;;;;5057016;28;20497;-79
2022/11/12 06:34:35;;;;;;;17.42;8.70;;;;;;;;;;5036879;28;20020;-79
2022/11/12 06:37:00;;;;;;;18.92;8.30;;;;;;;;;;5048616;28;20112;-79
2022/11/12 06:39:25;;;;;;;19.33;8.77;;;;;;;;;;5057364;28;20029;-80
2022/11/12 06:41:51;;;;;;;17.23;8.98;;;;;;;;;;5057751;28;20028;-78
2022/11/12 06:44:16;;;;;;;15.55;7.70;;;;;;;;;;5057487;28;20374;-79
2022/11/12 06:46:41;;;;;;;15.98;7.75;;;;;;;;;;5057682;28;20370;-78
2022/11/12 06:49:07;;;;;;;18.10;7.53;;;;;;;;;;5057507;28;20051;-79
2022/11/12 06:51:33;;;;;;;14.77;7.57;;;;;;;;;;5048255;28;20048;-78
2022/11/12 06:53:58;;;;;;;16.10;7.95;;;;;;;;;;5037878;28;20175;-79
2022/11/12 06:56:23;;;;;;;14.23;8.15;;;;;;;;;;5037794;28;20474;-77
2022/11/12 06:58:48;;;;;;;18.33;9.32;;;;;;;;;;5038115;28;20067;-76
2022/11/12 07:01:16;;;;;;;14.98;7.75;;;;;;;;;;5037096;28;20033;-77
2022/11/12 07:03:42;;;;;;;16.55;7.65;;;;;;;;;;5036645;28;20049;-79
2022/11/12 07:06:11;;;;;;;17.58;7.40;;;;;;;;;;5046145;28;20398;-79
2022/11/12 07:08:36;;;;;;;16.88;7.70;;;;;;;;;;5058311;28;20021;-79
2022/11/12 07:18:19;;;;;;;14.93;7.00;;;;;;;;;;4957075;29;20090;-78
2022/11/12 07:21:38;;;;;;;;;;;;;;;;;;;;;
2022/11/12 07:24:11;;;;;;;16.02;7.28;;;;;;;;;;4977951;28;20023;-78
2022/11/12 07:27:06;;;;;;;17.58;7.47;;;;;;;;;;4980133;28;20034;-78
2022/11/12 07:30:21;;;;;;;15.27;7.20;;;;;;;;;;4995813;28;20464;-79
2022/11/12 07:39:16;;;;;;;15.48;6.80;;;;;;;;;;4976471;28;20026;-78
2022/11/12 07:45:21;;;;;;;16.00;7.32;;;;;;;;;;4977627;28;20038;-80
2022/11/12 07:47:58;;;;;;;9.35;6.18;;;;;;;;;;4977304;28;20022;-78
2022/11/12 07:54:03;;;;;;;11.55;5.63;;;;;;;;;;4977458;28;20074;-79
2022/11/12 07:57:24;;;;;;;11.77;7.05;;;;;;;;;;5096692;27;20471;-78
2022/11/12 08:00:14;;;;;;;12.52;6.78;;;;;;;;;;5072393;28;20099;-77
2022/11/12 08:06:01;;;;;;;16.77;7.03;;;;;;;;;;5059035;28;20115;-78
2022/11/12 08:09:10;;;;;;;11.77;6.55;;;;;;;;;;5067064;28;20397;-77
2022/11/12 08:25:26;;;;;;;10.27;6.72;;;;;;;;;;6109125;22;20011;-79
2022/11/12 09:45:02;;;;;;;9.70;5.72;;;;;;;;;;5122470;22;20053;-79
2022/11/12 09:47:42;;;;;;;12.32;6.75;;;;;;;;;;5035437;28;20025;-79
2022/11/12 09:50:25;;;;;;;9.63;5.60;;;;;;;;;;5034743;28;20056;-79
2022/11/12 09:52:56;;;;;;;10.45;6.28;;;;;;;;;;4996871;28;20022;-78
2022/11/12 09:55:34;;;;;;;11.23;6.18;;;;;;;;;;4997071;28;20815;-78
2022/11/12 09:58:00;;;;;;;9.70;5.38;;;;;;;;;;5020933;28;20029;-80
2022/11/12 10:00:25;;;;;;;8.88;5.88;;;;;;;;;;5039502;28;20072;-78
2022/11/12 10:03:06;;;;;;;10.18;5.70;;;;;;;;;;5039569;28;20060;-79
2022/11/12 10:05:52;;;;;;;8.25;5.28;;;;;;;;;;5041106;28;20097;-76
2022/11/12 10:08:36;;;;;;;11.23;5.95;;;;;;;;;;5043651;28;20026;-77
2022/11/12 10:18:36;;;;;;;9.27;5.68;;;;;;;;;;5042035;28;20079;-77
2022/11/12 10:21:43;;;;;;;19.17;5.80;;;;;;;;;;5034987;28;20053;-79
2022/11/12 10:24:10;;;;;;;10.38;5.82;;;;;;;;;;5039927;28;20210;-79
2022/11/12 10:26:37;;;;;;;11.02;5.78;;;;;;;;;;5040923;28;20024;-78
2022/11/12 10:29:21;;;;;;;9.95;5.85;;;;;;;;;;5040576;28;20483;-79
2022/11/12 10:31:47;;;;;;;11.43;6.20;;;;;;;;;;5038736;28;20033;-78
2022/11/12 10:34:12;;;;;;;10.73;5.55;;;;;;;;;;5020728;28;20033;-78
2022/11/12 10:36:41;;;;;;;9.98;6.50;;;;;;;;;;5039517;28;20025;-78
2022/11/12 10:39:06;;;;;;;15.25;6.82;;;;;;;;;;5019773;28;20043;-79
2022/11/12 10:41:32;;;;;;;11.20;6.70;;;;;;;;;;5037270;28;20466;-77
2022/11/12 10:44:04;;;;;;;12.93;6.43;;;;;;;;;;5034432;28;20597;-80
2022/11/12 10:46:30;;;;;;;10.52;6.38;;;;;;;;;;5033668;28;20029;-79
2022/11/12 10:49:01;;;;;;;12.15;6.55;;;;;;;;;;5034173;28;20030;-78
2022/11/12 12:40:04;;;;;;;10.73;4.28;;;;;;;;;;4917715;29;20532;-79
2022/11/12 12:46:17;;;;;;;10.60;4.60;;;;;;;;;;4924931;29;20043;-79
2022/11/12 12:48:44;;;;;;;10.18;4.68;;;;;;;;;;4987802;28;20109;-81
2022/11/12 12:51:10;;;;;;;9.82;4.50;;;;;;;;;;5020117;28;20037;-79
2022/11/12 12:53:47;;;;;;;7.40;4.00;;;;;;;;;;5019181;28;20073;-80
2022/11/12 12:56:12;;;;;;;5.93;3.25;;;;;;;;;;5020217;28;20018;-79
2022/11/12 12:58:48;;;;;;;5.57;3.55;;;;;;;;;;5020294;28;20044;-81
2022/11/12 13:01:20;;;;;;;7.90;3.90;;;;;;;;;;5003376;28;20046;-81
2022/11/12 13:03:58;;;;;;;9.13;3.20;;;;;;;;;;5021994;28;20088;-80
2022/11/12 13:06:26;;;;;;;7.47;3.70;;;;;;;;;;5022373;28;20030;-79
2022/11/12 13:09:07;;;;;;;5.82;3.10;;;;;;;;;;5021970;28;20029;-81
2022/11/12 13:14:38;;;;;;;6.63;3.13;;;;;;;;;;5018986;28;20036;-79
2022/11/12 13:17:09;;;;;;;6.40;3.28;;;;;;;;;;5017292;28;20112;-79
2022/11/12 13:19:52;;;;;;;5.85;3.30;;;;;;;;;;5016916;28;20030;-78
2022/11/12 13:22:23;;;;;;;6.63;3.00;;;;;;;;;;5017285;28;20049;-79
2022/11/12 13:25:29;;;;;;;5.60;3.03;;;;;;;;;;5017805;28;20092;-79
2022/11/12 13:28:11;;;;;;;5.60;3.20;;;;;;;;;;5018901;28;20497;-79
2022/11/12 13:31:04;;;;;;;5.55;2.97;;;;;;;;;;5018747;28;20017;-79
2022/11/12 13:33:32;;;;;;;6.00;3.17;;;;;;;;;;5019234;28;20040;-79
2022/11/12 13:36:23;;;;;;;8.90;3.60;;;;;;;;;;5018687;28;20504;-78
2022/11/12 13:38:49;;;;;;;5.65;3.03;;;;;;;;;;5018103;28;20033;-79
2022/11/12 13:56:46;;;;;;;;;;;;;;;;;;;;;
2022/11/12 14:00:10;;;;;;;7.93;3.33;;;;;;;;;;4946607;28;20540;-80
2022/11/12 14:05:33;;;;;;;8.52;2.95;;;;;;;;;;4703930;26;20132;-80
2022/11/12 14:08:17;;;;;;;8.05;2.95;;;;;;;;;;5040023;28;20065;-79
2022/11/12 14:11:16;;;;;;;7.88;3.65;;;;;;;;;;5040770;28;20040;-79
2022/11/12 14:14:07;;;;;;;4.05;2.95;;;;;;;;;;5022788;28;20437;-81
2022/11/12 14:16:57;;;;;;;7.50;3.33;;;;;;;;;;5021828;28;20128;-80
2022/11/12 14:19:47;;;;;;;4.13;2.85;;;;;;;;;;5021461;28;20033;-79
2022/11/12 14:22:14;;;;;;;7.43;3.40;;;;;;;;;;5038134;28;20108;-79
2022/11/12 14:24:40;;;;;;;8.65;3.17;;;;;;;;;;5038371;28;20032;-78
2022/11/12 14:27:30;;;;;;;6.53;3.47;;;;;;;;;;5038796;28;20021;-80
2022/11/12 14:30:12;;;;;;;6.40;3.22;;;;;;;;;;5021574;28;20565;-80
2022/11/12 14:32:40;;;;;;;5.18;3.00;;;;;;;;;;5038193;28;20030;-80
2022/11/12 14:35:24;;;;;;;8.98;3.00;;;;;;;;;;5020766;28;20048;-80
2022/11/12 14:38:07;;;;;;;6.10;3.20;;;;;;;;;;5037675;28;20436;-79
2022/11/12 14:40:36;;;;;;;5.70;3.08;;;;;;;;;;5037889;28;20025;-80
2022/11/12 14:43:01;;;;;;;7.80;3.58;;;;;;;;;;5037893;28;20033;-80
2022/11/12 14:45:27;;;;;;;6.53;3.42;;;;;;;;;;5038035;28;20021;-79
2022/11/12 14:47:53;;;;;;;7.32;3.75;;;;;;;;;;5019923;28;20375;-78
2022/11/12 14:50:24;;;;;;;11.43;4.05;;;;;;;;;;5019742;28;20032;-79
2022/11/12 14:52:56;;;;;;;7.18;3.70;;;;;;;;;;5037222;28;20032;-78
2022/11/12 14:55:28;;;;;;;6.35;4.40;;;;;;;;;;5038335;28;20037;-79
2022/11/12 14:57:57;;;;;;;17.33;7.10;;;;;;;;;;5019793;28;20051;-80
2022/11/12 15:00:28;;;;;;;12.82;6.13;;;;;;;;;;5038739;28;20051;-79
2022/11/12 15:02:54;;;;;;;19.42;7.25;;;;;;;;;;5037886;28;20025;-80
2022/11/12 15:05:23;;;;;;;11.93;5.45;;;;;;;;;;5037885;28;20028;-80
2022/11/12 15:08:00;;;;;;;13.68;6.28;;;;;;;;;;5038988;28;20037;-77
2022/11/12 15:10:31;;;;;;;13.25;6.40;;;;;;;;;;5037712;28;20025;-80
2022/11/12 15:13:08;;;;;;;13.35;5.28;;;;;;;;;;5038232;28;20053;-79
2022/11/12 15:15:36;;;;;;;11.63;5.93;;;;;;;;;;5038446;28;20021;-79
2022/11/12 15:18:06;;;;;;;16.15;6.30;;;;;;;;;;5038387;28;20367;-80
2022/11/12 15:20:31;;;;;;;14.10;5.72;;;;;;;;;;5020239;28;20116;-79
2022/11/12 15:22:57;;;;;;;9.77;5.32;;;;;;;;;;5036927;28;20056;-79
2022/11/12 15:25:25;;;;;;;12.32;5.50;;;;;;;;;;5036609;28;20032;-79
2022/11/12 15:27:51;;;;;;;10.15;4.97;;;;;;;;;;5036313;28;20087;-80
2022/11/12 15:30:28;;;;;;;15.32;5.15;;;;;;;;;;5018810;28;20029;-80
2022/11/12 15:33:07;;;;;;;15.93;5.43;;;;;;;;;;5035916;28;20029;-78
2022/11/12 15:35:36;;;;;;;9.07;5.10;;;;;;;;;;5036461;28;20546;-79
2022/11/12 15:38:21;;;;;;;13.93;4.47;;;;;;;;;;5035644;28;20033;-79
2022/11/12 15:40:52;;;;;;;13.10;5.10;;;;;;;;;;5018612;28;20507;-79
2022/11/12 15:43:21;;;;;;;8.40;4.90;;;;;;;;;;5035927;28;20061;-78
2022/11/12 15:45:49;;;;;;;12.57;4.85;;;;;;;;;;5018583;28;20028;-78
2022/11/12 15:48:14;;;;;;;6.95;4.40;;;;;;;;;;5036934;28;20563;-80
2022/11/12 15:56:19;;;;;;;14.25;8.52;;;;;;;;;;4930246;26;20523;-81
2022/11/12 15:58:44;;;;;;;14.32;7.40;;;;;;;;;;4997463;28;20053;-79
2022/11/12 16:01:11;;;;;;;18.23;8.45;;;;;;;;;;4996007;28;20488;-80
2022/11/12 16:03:41;;;;;;;12.95;6.93;;;;;;;;;;4997034;28;20081;-79
2022/11/12 16:06:10;;;;;;;12.38;7.05;;;;;;;;;;5011065;28;20080;-79
2022/11/12 16:08:36;;;;;;;16.00;8.00;;;;;;;;;;5017250;28;20037;-79
2022/11/12 16:11:34;;;;;;;21.77;8.10;;;;;;;;;;5016490;28;20025;-79
2022/11/12 16:13:59;;;;;;;15.50;8.20;;;;;;;;;;5015801;28;20025;-79
2022/11/12 16:16:38;;;;;;;16.85;6.90;;;;;;;;;;5017268;28;20034;-79
2022/11/12 16:19:33;;;;;;;12.50;6.88;;;;;;;;;;5021332;28;20175;-80
2022/11/12 16:22:16;;;;;;;11.63;5.95;;;;;;;;;;4979393;28;20035;-80
2022/11/12 16:24:49;;;;;;;16.13;5.95;;;;;;;;;;4982473;28;20022;-79
2022/11/12 16:27:19;;;;;;;14.32;6.25;;;;;;;;;;4984487;28;20107;-78
2022/11/12 16:33:06;;;;;;;12.60;6.20;;;;;;;;;;4982776;28;20130;-79
2022/11/12 16:35:54;;;;;;;12.32;6.50;;;;;;;;;;4985943;28;20038;-79
2022/11/12 17:33:51;;;;;;;30.45;16.50;;;;;;;;;;3157860;22;20052;-79
2022/11/12 17:36:46;;;;;;;34.58;16.30;;;;;;;;;;5041927;28;20071;-79
2022/11/12 17:39:15;;;;;;;43.45;21.27;;;;;;;;;;5041772;28;20052;-81
2022/11/12 17:42:05;;;;;;;42.08;19.77;;;;;;;;;;5041518;28;20032;-80
2022/11/12 17:44:45;;;;;;;33.00;16.08;;;;;;;;;;5040483;28;20040;-80
2022/11/12 17:47:10;;;;;;;29.63;16.10;;;;;;;;;;5041187;28;20404;-80
2022/11/12 17:49:46;;;;;;;39.70;18.10;;;;;;;;;;5039832;28;20060;-78
2022/11/12 17:52:36;;;;;;;;;;;;;;;;;;;;;
2022/11/12 17:58:24;;;;;;;33.92;17.80;;;;;;;;;;4944610;28;20040;-80
2022/11/12 18:00:50;;;;;;;31.50;18.10;;;;;;;;;;5058445;28;20021;-77
2022/11/12 18:03:16;;;;;;;32.03;17.10;;;;;;;;;;5058678;28;20167;-78
2022/11/12 18:05:42;;;;;;;33.03;17.27;;;;;;;;;;5057270;28;20024;-78
2022/11/12 18:08:07;;;;;;;28.55;16.65;;;;;;;;;;5058247;28;20397;-79
2022/11/12 18:10:32;;;;;;;31.25;16.92;;;;;;;;;;5039465;28;20478;-80
2022/11/12 18:12:58;;;;;;;35.28;16.83;;;;;;;;;;5040721;28;20047;-80
2022/11/12 18:15:23;;;;;;;30.00;15.55;;;;;;;;;;5041411;28;20084;-79
2022/11/12 18:17:49;;;;;;;29.98;16.55;;;;;;;;;;5057496;28;20028;-79
2022/11/12 18:20:14;;;;;;;32.83;18.17;;;;;;;;;;5058552;28;20397;-79
2022/11/12 18:22:39;;;;;;;28.15;16.35;;;;;;;;;;5039601;28;20485;-80
2022/11/12 18:25:05;;;;;;;32.20;17.05;;;;;;;;;;5058086;28;20017;-79
2022/11/12 18:27:31;;;;;;;42.53;19.35;;;;;;;;;;5039857;28;20025;-78
2022/11/12 18:29:56;;;;;;;57.42;25.10;;;;;;;;;;5057961;28;20545;-79
2022/11/12 18:32:21;;;;;;;63.17;29.58;;;;;;;;;;5057000;28;20033;-79
2022/11/12 18:34:47;;;;;;;39.85;19.25;;;;;;;;;;5057698;28;20120;-79
2022/11/12 18:37:12;;;;;;;47.13;23.77;;;;;;;;;;5039441;28;20387;-78
2022/11/12 18:39:38;;;;;;;39.35;21.10;;;;;;;;;;5056855;28;20033;-80
2022/11/12 18:42:03;;;;;;;35.70;18.30;;;;;;;;;;5039998;28;20025;-79
2022/11/12 18:44:28;;;;;;;76.85;33.35;;;;;;;;;;5040846;28;20438;-80
2022/11/12 18:46:54;;;;;;;46.80;24.20;;;;;;;;;;5057341;28;20024;-79
2022/11/12 18:49:19;;;;;;;40.33;20.67;;;;;;;;;;5058025;28;20045;-79
2022/11/12 18:51:44;;;;;;;33.42;16.75;;;;;;;;;;5039677;28;20045;-80
2022/11/12 18:54:10;;;;;;;49.78;24.10;;;;;;;;;;5058049;28;20045;-79
2022/11/12 18:56:38;;;;;;;34.83;18.00;;;;;;;;;;5056775;28;20462;-80
2022/11/12 18:59:04;;;;;;;30.65;17.13;;;;;;;;;;5057226;28;20032;-80
2022/11/12 19:01:29;;;;;;;36.22;20.80;;;;;;;;;;5056835;28;20054;-78
2022/11/12 19:04:00;;;;;;;33.65;17.27;;;;;;;;;;5058043;28;20025;-79
2022/11/12 19:06:26;;;;;;;38.40;20.50;;;;;;;;;;5057584;28;20024;-79
2022/11/12 19:08:58;;;;;;;33.60;18.58;;;;;;;;;;5057115;28;20043;-80
2022/11/12 19:11:23;;;;;;;33.97;17.73;;;;;;;;;;5057843;28;20497;-78
2022/11/12 19:13:51;;;;;;;32.92;17.27;;;;;;;;;;5057361;28;20020;-79
2022/11/12 19:16:18;;;;;;;41.25;21.85;;;;;;;;;;5023582;28;20044;-80
2022/11/12 19:18:47;;;;;;;38.88;17.88;;;;;;;;;;5039104;28;20029;-79
2022/11/12 19:21:20;;;;;;;32.78;16.50;;;;;;;;;;5057067;28;20029;-79
2022/11/12 19:23:46;;;;;;;32.67;16.77;;;;;;;;;;5056652;28;20025;-79
2022/11/12 19:26:15;;;;;;;36.22;18.15;;;;;;;;;;5056798;28;20024;-81
2022/11/12 19:28:43;;;;;;;32.38;16.48;;;;;;;;;;5039261;28;20031;-79
2022/11/12 19:31:19;;;;;;;34.53;15.40;;;;;;;;;;5056329;28;20090;-80
2022/11/12 19:33:46;;;;;;;34.90;16.35;;;;;;;;;;5056998;28;20033;-79
2022/11/12 19:36:13;;;;;;;32.25;15.65;;;;;;;;;;5057114;28;20139;-80
2022/11/12 19:38:44;;;;;;;34.00;15.40;;;;;;;;;;5057102;28;20044;-80
2022/11/12 19:41:32;;;;;;;34.13;18.27;;;;;;;;;;5055562;28;20390;-80
2022/11/12 19:44:02;;;;;;;37.63;18.80;;;;;;;;;;5055871;28;20107;-79
2022/11/12 19:47:02;;;;;;;32.83;17.52;;;;;;;;;;5038127;28;20025;-80
2022/11/12 19:49:33;;;;;;;34.70;18.20;;;;;;;;;;5036675;28;20553;-80
2022/11/12 19:51:59;;;;;;;33.45;18.75;;;;;;;;;;5037514;28;20436;-81
2022/11/12 19:54:39;;;;;;;35.92;18.50;;;;;;;;;;5055949;28;20037;-78
2022/11/12 19:57:13;;;;;;;41.33;20.45;;;;;;;;;;5056070;28;20055;-79
2022/11/12 19:59:47;;;;;;;39.03;19.27;;;;;;;;;;5051604;28;20497;-80
2022/11/12 20:02:22;;;;;;;;;;;;;;;;;;;;;
2022/11/12 20:04:53;;;;;;;42.97;20.25;;;;;;;;;;5052555;28;20017;-80
2022/11/12 20:07:28;;;;;;;45.15;21.15;;;;;;;;;;5053417;28;20068;-80
2022/11/12 20:09:54;;;;;;;40.30;20.65;;;;;;;;;;5052851;28;20044;-80
2022/11/12 20:12:38;;;;;;;33.60;17.90;;;;;;;;;;5035885;28;20029;-80
2022/11/12 20:15:09;;;;;;;35.78;16.65;;;;;;;;;;5052186;28;20044;-80
2022/11/12 20:17:47;;;;;;;29.73;14.98;;;;;;;;;;5052263;28;20036;-79
2022/11/12 20:20:12;;;;;;;26.40;15.05;;;;;;;;;;5052669;28;20032;-80
2022/11/12 20:22:38;;;;;;;29.55;14.32;;;;;;;;;;5051889;28;20035;-79
2022/11/12 20:25:06;;;;;;;27.67;14.10;;;;;;;;;;5052849;28;20684;-81
2022/11/12 20:27:31;;;;;;;34.50;15.70;;;;;;;;;;5033585;28;20028;-80
2022/11/12 20:29:57;;;;;;;27.88;15.25;;;;;;;;;;5051939;28;20513;-80
2022/11/12 20:32:25;;;;;;;27.38;14.85;;;;;;;;;;5052369;28;20397;-78
2022/11/12 20:34:51;;;;;;;30.58;15.45;;;;;;;;;;5052164;28;20123;-81
2022/11/12 20:37:25;;;;;;;30.17;15.82;;;;;;;;;;5052975;28;20466;-80
2022/11/12 20:39:58;;;;;;;33.08;15.30;;;;;;;;;;5051672;28;20128;-79
2022/11/12 20:42:41;;;;;;;33.22;16.02;;;;;;;;;;5051886;28;20032;-79